Time;durP1;ratioP1;P1;durP2;ratioP2;P2;SDS_P1;SDS_P2;PMS_P1;PMS_P2;Temp;Humidity;BMP_temperature;BMP_pressure;BME280_temperature;BME280_humidity;BME280_pressure;Samples;Min_cycle;Max_cycle;Signal;HPM_P1;HPM_P2
2023/03/24 00:00:16;;;;;;;3.67;2.92;;;;;;;13.23;69.13;99551.84;683224;28;1305;-77
2023/03/24 00:00:37;;;;;;;4.13;3.13;;;;;;;13.20;69.01;99542.22;685735;28;1126;-77
2023/03/24 00:01:00;;;;;;;5.05;3.20;;;;;;;13.24;69.33;99549.22;686046;28;882;-78
2023/03/24 00:01:20;;;;;;;5.15;3.20;;;;;;;13.15;69.14;99538.78;683252;28;1344;-77
2023/03/24 00:01:41;;;;;;;5.30;3.20;;;;;;;13.15;69.24;99539.63;683195;29;1069;-77
2023/03/24 00:02:02;;;;;;;5.60;3.20;;;;;;;13.14;68.97;99535.28;683151;29;1244;-78
2023/03/24 00:02:23;;;;;;;5.07;3.10;;;;;;;13.15;69.34;99539.63;686089;28;1128;-78
2023/03/24 00:02:45;;;;;;;5.28;3.00;;;;;;;13.22;69.14;99560.56;680668;29;993;-78
2023/03/24 00:03:06;;;;;;;4.07;2.90;;;;;;;13.28;68.86;99571.03;686012;28;1188;-77
2023/03/24 00:03:28;;;;;;;3.75;2.97;;;;;;;13.20;69.20;99557.09;683242;29;1128;-78
2023/03/24 00:03:50;;;;;;;5.10;3.20;;;;;;;13.14;69.03;99545.75;685873;28;1159;-78
2023/03/24 00:04:11;;;;;;;5.57;3.25;;;;;;;13.19;69.09;99550.09;688537;28;1219;-77
2023/03/24 00:04:33;;;;;;;5.30;2.97;;;;;;;13.14;69.25;99542.25;685889;28;1148;-78
2023/03/24 00:04:57;;;;;;;4.10;2.70;;;;;;;13.19;69.08;99544.84;683367;29;1221;-77
2023/03/24 00:05:20;;;;;;;4.25;2.70;;;;;;;13.14;69.39;99547.47;684638;28;1047;-78
2023/03/24 00:05:41;;;;;;;5.40;3.10;;;;;;;13.13;69.41;99538.78;685902;28;1099;-77
2023/03/24 00:06:03;;;;;;;4.70;3.00;;;;;;;13.11;69.32;99543.16;687225;28;983;-77
2023/03/24 00:06:25;;;;;;;6.40;3.30;;;;;;;13.14;69.43;99537.88;690061;28;1029;-77
2023/03/24 00:06:48;;;;;;;5.35;3.30;;;;;;;13.10;69.51;99541.38;687273;28;1174;-78
2023/03/24 00:07:13;;;;;;;4.03;3.10;;;;;;;13.16;69.26;99541.38;688436;28;1242;-77
2023/03/24 00:07:37;;;;;;;4.00;2.90;;;;;;;13.13;69.36;99535.25;685932;28;1143;-77
2023/03/24 00:08:01;;;;;;;4.50;2.90;;;;;;;13.15;69.20;99537.00;686015;28;808;-77
2023/03/24 00:08:22;;;;;;;4.20;2.80;;;;;;;13.18;69.53;99543.09;685986;28;1071;-77
2023/03/24 00:08:46;;;;;;;3.75;2.88;;;;;;;13.22;69.64;99545.72;685947;28;1107;-77
2023/03/24 00:09:07;;;;;;;4.55;2.95;;;;;;;13.19;69.43;99537.88;683168;28;1200;-77
2023/03/24 00:09:29;;;;;;;4.50;3.20;;;;;;;13.10;69.63;99536.13;685187;28;1233;-77
2023/03/24 00:09:56;;;;;;;4.93;3.10;;;;;;;13.15;69.74;99539.63;685876;28;1573;-77
2023/03/24 00:10:21;;;;;;;4.13;2.80;;;;;;;13.13;69.51;99533.53;685187;28;970;-77
2023/03/24 00:10:46;;;;;;;5.78;2.88;;;;;;;13.17;69.52;99537.00;683265;29;959;-77
2023/03/24 00:11:10;;;;;;;5.80;2.90;;;;;;;13.20;69.37;99552.72;680551;29;1259;-77
2023/03/24 00:11:34;;;;;;;3.40;2.70;;;;;;;13.21;69.46;99543.13;683228;28;990;-77
2023/03/24 00:11:56;;;;;;;3.58;2.70;;;;;;;13.16;69.61;99541.38;683263;28;1257;-78
2023/03/24 00:12:17;;;;;;;3.47;2.80;;;;;;;13.21;69.62;99543.13;685748;28;1805;-77
2023/03/24 00:12:38;;;;;;;3.53;2.90;;;;;;;13.15;69.56;99544.00;685655;28;1208;-77
2023/03/24 00:12:59;;;;;;;4.78;3.10;;;;;;;13.14;69.52;99543.13;685925;28;1212;-77
2023/03/24 00:13:36;;;;;;;6.45;3.35;;;;;;;13.18;69.52;99537.88;685801;28;1196;-77
2023/03/24 00:13:57;;;;;;;5.45;3.28;;;;;;;13.15;69.49;99537.00;683318;29;1106;-77
2023/03/24 00:14:18;;;;;;;4.07;3.05;;;;;;;13.15;69.59;99531.78;683195;29;1177;-78
2023/03/24 00:14:39;;;;;;;4.15;2.80;;;;;;;13.19;69.94;99543.13;688513;28;1300;-78
2023/03/24 00:15:01;;;;;;;4.38;2.90;;;;;;;13.16;69.62;99532.66;685938;28;1131;-77
2023/03/24 00:15:22;;;;;;;3.90;2.90;;;;;;;13.14;69.41;99522.19;683273;29;842;-77
2023/03/24 00:15:44;;;;;;;5.22;2.90;;;;;;;13.16;69.60;99536.13;685816;28;1232;-77
2023/03/24 00:16:07;;;;;;;5.35;2.95;;;;;;;13.26;69.42;99539.59;685814;28;1118;-78
2023/03/24 00:16:28;;;;;;;5.72;3.20;;;;;;;13.16;69.53;99530.91;685852;28;1220;-77
2023/03/24 00:16:49;;;;;;;4.22;3.10;;;;;;;13.14;69.70;99516.94;688491;28;1370;-77
2023/03/24 00:17:16;;;;;;;3.88;3.08;;;;;;;13.21;69.60;99532.63;687898;28;1405;-77
2023/03/24 00:17:38;;;;;;;3.30;2.90;;;;;;;13.24;69.38;99532.63;682948;28;1240;-77
2023/03/24 00:17:59;;;;;;;5.78;3.30;;;;;;;13.17;69.39;99526.53;683207;29;1267;-77
2023/03/24 00:18:21;;;;;;;6.95;3.25;;;;;;;13.26;69.87;99536.09;685732;28;1183;-77
2023/03/24 00:18:42;;;;;;;8.20;3.30;;;;;;;13.11;69.93;99522.19;683174;29;1074;-77
2023/03/24 00:19:03;;;;;;;6.30;2.97;;;;;;;13.14;69.65;99516.94;683217;29;1108;-77
2023/03/24 00:19:24;;;;;;;4.93;2.80;;;;;;;13.14;69.58;99527.41;685883;28;1223;-77
2023/03/24 00:19:45;;;;;;;3.88;2.60;;;;;;;13.20;69.55;99531.75;688442;28;1961;-77
2023/03/24 00:20:15;;;;;;;3.40;2.60;;;;;;;13.23;69.87;99526.53;685847;28;1159;-77
2023/03/24 00:20:36;;;;;;;4.30;3.00;;;;;;;13.24;69.50;99530.88;688441;28;1227;-77
2023/03/24 00:20:57;;;;;;;4.57;3.13;;;;;;;13.28;69.71;99534.38;685976;28;907;-78
2023/03/24 00:21:20;;;;;;;4.93;3.00;;;;;;;13.25;69.44;99534.34;685849;28;1108;-77
2023/03/24 00:21:42;;;;;;;3.85;2.83;;;;;;;13.23;69.48;99530.88;688511;28;1810;-78
2023/03/24 00:22:05;;;;;;;3.95;2.80;;;;;;;13.21;69.39;99525.63;688527;28;1138;-77
2023/03/24 00:22:27;;;;;;;4.50;2.90;;;;;;;13.20;69.75;99530.91;685764;28;1266;-77
2023/03/24 00:22:55;;;;;;;4.60;2.85;;;;;;;13.26;69.64;99536.09;685865;28;1201;-77
2023/03/24 00:23:16;;;;;;;3.95;2.80;;;;;;;13.22;69.58;99523.91;685848;28;1072;-77
2023/03/24 00:23:37;;;;;;;3.85;2.75;;;;;;;13.26;69.44;99521.25;685685;28;1736;-78
2023/03/24 00:24:00;;;;;;;5.53;2.80;;;;;;;13.25;69.53;99516.91;683364;29;1109;-77
2023/03/24 00:24:20;;;;;;;4.93;2.83;;;;;;;13.22;69.84;99524.75;685726;28;1134;-77
2023/03/24 00:24:45;;;;;;;3.80;2.90;;;;;;;13.23;69.87;99508.19;688592;28;885;-77
2023/03/24 00:25:06;;;;;;;3.10;2.80;;;;;;;13.23;69.54;99515.16;685803;28;1177;-77
2023/03/24 00:25:32;;;;;;;3.17;2.88;;;;;;;13.21;69.59;99511.69;680317;29;1403;-77
2023/03/24 00:26:07;;;;;;;3.40;2.90;;;;;;;13.23;69.64;99518.66;680605;29;1115;-77
2023/03/24 00:26:28;;;;;;;3.83;2.83;;;;;;;13.25;69.66;99516.03;683193;29;1002;-78
2023/03/24 00:26:50;;;;;;;3.95;2.83;;;;;;;13.21;69.73;99528.25;683056;29;1275;-78
2023/03/24 00:27:21;;;;;;;4.65;3.00;;;;;;;13.28;69.66;99527.38;683247;29;788;-77
2023/03/24 00:27:43;;;;;;;3.85;2.50;;;;;;;13.24;69.82;99522.13;683123;29;1356;-77
2023/03/24 00:28:06;;;;;;;5.63;2.47;;;;;;;13.26;69.37;99509.91;685740;28;993;-77
2023/03/24 00:28:27;;;;;;;5.95;2.70;;;;;;;13.30;69.60;99532.59;688598;28;1025;-77
2023/03/24 00:28:48;;;;;;;5.50;2.90;;;;;;;13.25;69.51;99518.63;691279;28;1194;-77
2023/03/24 00:29:10;;;;;;;3.70;2.90;;;;;;;13.22;69.46;99522.13;688459;28;1074;-77
2023/03/24 00:29:31;;;;;;;4.07;2.90;;;;;;;13.30;69.58;99533.47;688578;28;1116;-77
2023/03/24 00:29:51;;;;;;;4.30;2.95;;;;;;;13.22;69.56;99537.84;689556;28;1020;-77
2023/03/24 00:30:12;;;;;;;4.95;3.10;;;;;;;13.23;69.67;99525.66;691097;28;1116;-77
2023/03/24 00:30:34;;;;;;;4.70;3.00;;;;;;;13.28;69.79;99516.03;685173;28;1298;-77
2023/03/24 00:30:54;;;;;;;4.50;2.83;;;;;;;13.22;69.65;99508.19;683290;29;905;-78
2023/03/24 00:31:16;;;;;;;4.73;2.70;;;;;;;13.33;69.65;99524.72;680992;29;1161;-77
2023/03/24 00:31:38;;;;;;;4.63;2.80;;;;;;;13.29;69.87;99530.88;680384;29;1211;-78
2023/03/24 00:32:00;;;;;;;4.55;2.90;;;;;;;13.28;69.81;99519.50;680651;29;819;-77
2023/03/24 00:32:21;;;;;;;3.63;2.90;;;;;;;13.24;69.83;99516.91;684085;28;1077;-77
2023/03/24 00:32:42;;;;;;;3.83;2.83;;;;;;;13.18;69.91;99514.28;685860;28;980;-78
2023/03/24 00:33:03;;;;;;;3.95;2.70;;;;;;;13.26;69.99;99515.13;684079;28;1148;-78
2023/03/24 00:33:24;;;;;;;4.00;2.83;;;;;;;13.24;69.79;99502.06;683196;29;1142;-77
2023/03/24 00:33:49;;;;;;;4.35;2.80;;;;;;;13.27;69.89;99509.06;683115;29;1189;-78
2023/03/24 00:34:11;;;;;;;4.47;2.70;;;;;;;13.24;69.85;99512.56;680472;29;1345;-77
2023/03/24 00:34:33;;;;;;;4.50;2.60;;;;;;;13.22;69.70;99502.94;680428;29;1112;-77
2023/03/24 00:34:53;;;;;;;3.40;2.70;;;;;;;13.25;69.66;99516.03;680596;29;1221;-78
2023/03/24 00:35:16;;;;;;;3.70;2.70;;;;;;;13.22;69.91;99505.56;683045;29;1049;-77
2023/03/24 00:35:38;;;;;;;3.38;2.70;;;;;;;13.24;69.66;99511.66;682831;28;1411;-78
2023/03/24 00:35:59;;;;;;;3.70;2.80;;;;;;;13.26;69.89;99515.13;683193;28;1215;-77
2023/03/24 00:36:22;;;;;;;3.60;2.88;;;;;;;13.26;69.70;99516.03;685738;28;1232;-77
2023/03/24 00:36:42;;;;;;;3.78;2.70;;;;;;;13.24;69.65;99501.19;685612;28;1512;-77
2023/03/24 00:37:04;;;;;;;4.30;2.80;;;;;;;13.27;69.80;99509.06;680500;29;1202;-77
2023/03/24 00:37:25;;;;;;;3.92;2.75;;;;;;;13.31;69.76;99513.38;680429;29;1094;-77
2023/03/24 00:37:46;;;;;;;3.90;3.10;;;;;;;13.27;69.46;99511.69;685882;28;1124;-77
2023/03/24 00:38:07;;;;;;;3.53;3.10;;;;;;;13.36;69.57;99522.13;685825;28;1136;-77
2023/03/24 00:38:28;;;;;;;3.83;3.43;;;;;;;13.35;69.54;99525.63;685775;28;1358;-77
2023/03/24 00:38:49;;;;;;;3.53;3.13;;;;;;;13.29;69.61;99510.75;685798;28;1180;-77
2023/03/24 00:39:10;;;;;;;3.90;3.10;;;;;;;13.30;69.94;99503.78;680393;29;1124;-77
2023/03/24 00:39:31;;;;;;;3.90;2.80;;;;;;;13.27;69.62;99502.03;680442;29;1180;-78
2023/03/24 00:39:52;;;;;;;3.80;2.70;;;;;;;13.25;69.73;99508.16;685797;28;1922;-77
2023/03/24 00:40:15;;;;;;;3.50;2.80;;;;;;;13.33;69.50;99506.38;683073;29;1091;-77
2023/03/24 00:40:36;;;;;;;5.28;2.90;;;;;;;13.29;69.77;99494.19;683072;29;1118;-77
2023/03/24 00:40:58;;;;;;;5.72;2.95;;;;;;;13.31;69.38;99500.28;683298;29;1198;-77
2023/03/24 00:41:20;;;;;;;5.72;2.85;;;;;;;13.34;69.54;99521.22;684995;28;1878;-77
2023/03/24 00:41:43;;;;;;;3.28;2.65;;;;;;;13.31;69.74;99502.91;685800;28;1242;-78
2023/03/24 00:42:06;;;;;;;4.18;2.80;;;;;;;13.34;69.41;99502.03;683093;28;1149;-77
2023/03/24 00:42:26;;;;;;;4.40;2.90;;;;;;;13.34;69.50;99497.66;683242;28;960;-78
2023/03/24 00:42:49;;;;;;;3.88;2.75;;;;;;;13.36;69.70;99503.78;682986;28;926;-78
2023/03/24 00:43:09;;;;;;;3.50;2.70;;;;;;;13.30;69.57;99503.78;683217;29;979;-77
2023/03/24 00:43:30;;;;;;;4.17;2.83;;;;;;;13.30;69.62;99498.56;683034;29;1046;-78
2023/03/24 00:43:57;;;;;;;4.32;2.85;;;;;;;13.30;69.73;99491.53;683244;29;1078;-77
2023/03/24 00:44:18;;;;;;;5.00;2.88;;;;;;;13.32;69.92;99504.66;687135;28;1009;-78
2023/03/24 00:44:38;;;;;;;4.97;2.65;;;;;;;13.32;69.47;99498.56;688401;28;1099;-78
2023/03/24 00:44:59;;;;;;;4.80;2.80;;;;;;;13.27;69.95;99491.56;689797;28;795;-78
2023/03/24 00:45:24;;;;;;;4.20;2.90;;;;;;;13.30;69.96;99511.66;686750;28;1272;-77
2023/03/24 00:45:46;;;;;;;3.35;2.90;;;;;;;13.32;69.61;99499.41;683041;28;1917;-78
2023/03/24 00:46:12;;;;;;;3.28;2.80;;;;;;;13.37;69.78;99500.28;685772;28;1148;-78
2023/03/24 00:46:34;;;;;;;3.25;2.60;;;;;;;13.35;69.83;99491.56;683069;28;1177;-77
2023/03/24 00:46:54;;;;;;;4.35;2.60;;;;;;;13.37;69.50;99507.25;683009;29;1956;-78
2023/03/24 00:47:16;;;;;;;3.80;2.60;;;;;;;13.34;69.73;99492.41;685704;28;1159;-77
2023/03/24 00:47:37;;;;;;;3.95;2.80;;;;;;;13.31;69.82;99492.44;685599;28;1276;-77
2023/03/24 00:47:58;;;;;;;3.38;2.70;;;;;;;13.37;69.98;99507.25;683168;29;1131;-77
2023/03/24 00:48:19;;;;;;;4.07;2.80;;;;;;;13.34;69.88;99487.16;685566;28;1488;-77
2023/03/24 00:48:40;;;;;;;4.30;2.80;;;;;;;13.37;69.79;99494.16;683014;29;1328;-78
2023/03/24 00:49:06;;;;;;;3.65;2.80;;;;;;;13.31;69.65;99492.44;683079;29;1109;-78
2023/03/24 00:49:41;;;;;;;4.65;2.80;;;;;;;13.35;69.44;99488.06;685826;28;998;-78
2023/03/24 00:50:08;;;;;;;5.40;2.70;;;;;;;13.35;69.64;99494.19;690940;28;1890;-77
2023/03/24 00:50:32;;;;;;;4.35;2.83;;;;;;;13.41;69.67;99496.75;691082;28;956;-78
2023/03/24 00:50:53;;;;;;;4.15;2.80;;;;;;;13.36;69.57;99485.44;685867;28;867;-77
2023/03/24 00:51:14;;;;;;;4.10;2.80;;;;;;;13.45;69.52;99505.47;683156;29;1078;-78
2023/03/24 00:51:37;;;;;;;4.15;2.80;;;;;;;13.34;69.37;99487.16;683015;29;1097;-78
2023/03/24 00:51:58;;;;;;;3.60;2.65;;;;;;;13.41;69.67;99499.38;688464;28;882;-77
2023/03/24 00:52:22;;;;;;;3.15;2.60;;;;;;;13.33;69.78;99481.94;683047;29;1257;-77
2023/03/24 00:52:43;;;;;;;3.28;2.60;;;;;;;13.36;69.52;99490.69;685828;28;1136;-77
2023/03/24 00:53:03;;;;;;;3.80;2.80;;;;;;;13.36;69.59;99485.44;685722;28;1657;-77
2023/03/24 00:53:28;;;;;;;2.97;2.60;;;;;;;13.38;69.42;99478.44;685816;28;1043;-77
2023/03/24 00:53:48;;;;;;;3.38;2.60;;;;;;;13.36;69.55;99481.94;685732;28;1093;-78
2023/03/24 00:54:11;;;;;;;3.72;2.70;;;;;;;13.40;69.49;99489.78;683118;29;1340;-78
2023/03/24 00:54:32;;;;;;;3.80;2.80;;;;;;;13.35;69.52;99481.06;685677;28;1419;-77
2023/03/24 00:54:58;;;;;;;4.23;2.90;;;;;;;13.37;69.65;99475.81;685947;28;797;-77
2023/03/24 00:55:20;;;;;;;4.80;2.80;;;;;;;13.36;69.48;99472.34;683108;28;1434;-78
2023/03/24 00:55:48;;;;;;;5.00;2.83;;;;;;;13.40;69.71;99470.56;682949;28;1010;-77
2023/03/24 00:56:10;;;;;;;3.50;2.55;;;;;;;13.37;69.56;99474.06;683091;29;1004;-78
2023/03/24 00:56:34;;;;;;;3.45;2.50;;;;;;;13.36;69.32;99464.47;683051;29;1132;-77
2023/03/24 00:56:55;;;;;;;3.40;2.70;;;;;;;13.43;69.47;99479.28;682936;29;1486;-77
2023/03/24 00:57:24;;;;;;;4.35;2.90;;;;;;;13.41;69.53;99467.91;680458;29;1098;-77
2023/03/24 00:57:49;;;;;;;5.43;3.13;;;;;;;13.43;69.67;99471.44;685215;28;2058;-78
2023/03/24 00:58:18;;;;;;;4.68;2.90;;;;;;;13.47;69.43;99482.78;685759;28;1004;-77
2023/03/24 00:58:39;;;;;;;2.75;2.55;;;;;;;13.43;69.52;99475.78;685605;28;1135;-77
2023/03/24 00:59:01;;;;;;;2.97;2.60;;;;;;;13.39;69.67;99467.06;685755;28;1144;-77
2023/03/24 00:59:22;;;;;;;3.10;2.50;;;;;;;13.36;69.47;99459.22;685474;28;1105;-77
2023/03/24 00:59:47;;;;;;;3.25;2.53;;;;;;;13.38;69.51;99459.22;682989;28;1911;-77
2023/03/24 01:00:13;;;;;;;3.00;2.70;;;;;;;13.42;69.55;99464.41;685794;28;1033;-77
2023/03/24 01:00:34;;;;;;;3.28;2.90;;;;;;;13.39;69.52;99453.97;680341;29;1190;-78
2023/03/24 01:00:57;;;;;;;3.05;2.75;;;;;;;13.39;69.65;99447.88;677894;29;883;-77
2023/03/24 01:01:20;;;;;;;3.05;2.72;;;;;;;13.42;69.57;99464.41;680286;29;1095;-78
2023/03/24 01:01:42;;;;;;;4.00;2.80;;;;;;;13.42;69.42;99474.06;683083;29;1006;-77
2023/03/24 01:02:03;;;;;;;4.20;2.95;;;;;;;13.39;69.57;99464.44;685733;28;1135;-78
2023/03/24 01:02:26;;;;;;;3.00;2.67;;;;;;;13.39;69.51;99463.59;683014;29;1165;-78
2023/03/24 01:02:54;;;;;;;2.90;2.60;;;;;;;13.34;69.96;99460.13;683131;29;1086;-78
2023/03/24 01:03:16;;;;;;;3.38;2.60;;;;;;;13.43;69.78;99470.53;680258;29;1202;-77
2023/03/24 01:03:46;;;;;;;3.30;2.60;;;;;;;13.38;69.48;99454.84;680260;29;1193;-77
2023/03/24 01:04:08;;;;;;;4.68;2.70;;;;;;;13.40;69.98;99466.19;683043;29;1057;-78
2023/03/24 01:04:34;;;;;;;5.53;2.80;;;;;;;13.39;69.58;99466.22;685640;28;2036;-77
2023/03/24 01:04:57;;;;;;;5.00;2.80;;;;;;;13.47;70.01;99476.66;683180;29;869;-77
2023/03/24 01:05:27;;;;;;;4.15;2.60;;;;;;;13.55;69.62;99464.38;685717;28;1099;-77
2023/03/24 01:05:47;;;;;;;5.05;2.65;;;;;;;13.48;69.51;99449.56;685771;28;1100;-78
2023/03/24 01:06:10;;;;;;;5.25;2.80;;;;;;;13.46;69.50;99459.19;683127;29;1014;-78
2023/03/24 01:06:30;;;;;;;4.00;2.78;;;;;;;13.46;69.78;99451.31;682913;28;1328;-78
2023/03/24 01:06:53;;;;;;;5.40;2.63;;;;;;;13.46;69.68;99448.69;688162;28;1287;-78
2023/03/24 01:07:17;;;;;;;6.13;2.80;;;;;;;13.42;69.70;99443.47;685810;28;1218;-78
2023/03/24 01:07:41;;;;;;;5.80;2.90;;;;;;;13.46;69.70;99453.94;685550;28;1030;-78
2023/03/24 01:08:03;;;;;;;3.25;2.70;;;;;;;13.49;69.67;99448.69;685761;28;1077;-78
2023/03/24 01:08:24;;;;;;;3.88;2.80;;;;;;;13.54;69.73;99446.91;685670;28;1200;-78
2023/03/24 01:08:45;;;;;;;4.28;2.67;;;;;;;13.52;69.65;99443.44;683171;29;955;-77
2023/03/24 01:09:06;;;;;;;3.95;2.55;;;;;;;13.60;69.75;99452.13;683005;29;1140;-77
2023/03/24 01:09:27;;;;;;;3.28;2.40;;;;;;;13.57;69.37;99441.63;682976;29;1198;-78
2023/03/24 01:09:56;;;;;;;2.85;2.50;;;;;;;13.58;69.28;99446.00;685555;28;1138;-77
2023/03/24 01:10:20;;;;;;;2.83;2.53;;;;;;;13.56;69.43;99439.91;688312;28;2086;-77
2023/03/24 01:10:51;;;;;;;2.70;2.50;;;;;;;13.52;69.21;99443.44;688286;28;1118;-78
2023/03/24 01:11:12;;;;;;;2.90;2.50;;;;;;;13.51;69.67;99436.47;688256;28;952;-77
2023/03/24 01:11:40;;;;;;;2.93;2.50;;;;;;;13.57;69.50;99444.25;685589;28;1300;-77
2023/03/24 01:12:04;;;;;;;2.55;2.35;;;;;;;13.54;69.54;99437.28;682992;29;1273;-77
2023/03/24 01:12:27;;;;;;;3.10;2.80;;;;;;;13.64;69.29;99448.59;680275;29;1154;-77
2023/03/24 01:12:48;;;;;;;3.80;2.80;;;;;;;13.64;69.13;99447.72;682971;29;1148;-77
2023/03/24 01:13:09;;;;;;;3.10;2.70;;;;;;;13.64;69.17;99450.34;683084;29;1089;-77
2023/03/24 01:13:29;;;;;;;3.05;2.60;;;;;;;13.55;69.26;99440.78;682987;29;1068;-78
2023/03/24 01:13:52;;;;;;;2.83;2.63;;;;;;;13.56;69.37;99435.53;683015;28;1199;-78
2023/03/24 01:14:28;;;;;;;2.90;2.65;;;;;;;13.60;69.33;99440.75;685643;28;1519;-78
2023/03/24 01:14:49;;;;;;;3.45;2.55;;;;;;;13.60;69.08;99436.41;685789;28;1082;-78
2023/03/24 01:15:15;;;;;;;3.90;2.60;;;;;;;13.61;69.19;99435.50;685741;28;1028;-77
2023/03/24 01:15:35;;;;;;;3.63;2.67;;;;;;;13.60;69.08;99435.50;682893;29;1207;-77
2023/03/24 01:15:57;;;;;;;2.80;2.50;;;;;;;13.66;69.14;99440.72;685640;28;1238;-78
2023/03/24 01:16:18;;;;;;;3.38;2.42;;;;;;;13.64;69.32;99445.97;682783;28;1883;-78
2023/03/24 01:16:40;;;;;;;3.50;2.45;;;;;;;13.67;69.18;99450.31;682793;29;1011;-76
2023/03/24 01:17:02;;;;;;;3.80;2.60;;;;;;;13.62;69.35;99441.59;685249;28;1301;-77
2023/03/24 01:17:24;;;;;;;3.20;2.70;;;;;;;13.68;69.19;99442.47;688335;28;1880;-77
2023/03/24 01:17:47;;;;;;;3.10;2.72;;;;;;;13.62;69.00;99445.13;685648;28;1232;-78
2023/03/24 01:18:08;;;;;;;2.78;2.40;;;;;;;13.63;69.13;99436.38;685378;28;992;-78
2023/03/24 01:18:29;;;;;;;3.80;2.35;;;;;;;13.65;69.35;99429.34;685760;28;1468;-78
2023/03/24 01:18:51;;;;;;;4.18;2.40;;;;;;;13.74;69.25;99443.28;683021;28;1280;-78
2023/03/24 01:19:13;;;;;;;4.05;2.55;;;;;;;13.66;69.10;99425.84;685492;28;1285;-78
2023/03/24 01:19:33;;;;;;;3.88;2.70;;;;;;;13.60;69.30;99433.78;685580;28;1240;-78
2023/03/24 01:19:55;;;;;;;4.25;2.63;;;;;;;13.75;68.88;99447.69;682898;29;1983;-78
2023/03/24 01:20:16;;;;;;;4.25;2.60;;;;;;;13.84;68.73;99444.97;682926;29;1187;-77
2023/03/24 01:20:39;;;;;;;4.27;2.80;;;;;;;13.75;68.91;99437.19;685607;28;1033;-78
2023/03/24 01:21:00;;;;;;;3.67;2.60;;;;;;;13.70;69.06;99432.84;685741;28;1160;-77
2023/03/24 01:21:21;;;;;;;4.07;2.47;;;;;;;13.67;68.78;99430.25;682955;29;1046;-78
2023/03/24 01:21:42;;;;;;;3.30;2.40;;;;;;;13.66;68.87;99423.22;685660;28;1174;-78
2023/03/24 01:22:03;;;;;;;3.17;2.40;;;;;;;13.69;68.91;99419.72;685710;28;1032;-78
2023/03/24 01:22:28;;;;;;;2.70;2.50;;;;;;;13.65;69.13;99413.63;680538;29;1125;-77
2023/03/24 01:22:50;;;;;;;3.28;2.60;;;;;;;13.67;68.96;99418.88;683008;29;1103;-78
2023/03/24 01:23:13;;;;;;;4.03;2.78;;;;;;;13.77;69.17;99427.56;685642;28;2007;-78
2023/03/24 01:23:34;;;;;;;4.20;2.60;;;;;;;13.70;69.22;99414.47;682941;29;1180;-78
2023/03/24 01:23:55;;;;;;;4.15;2.70;;;;;;;13.71;69.41;99423.22;683076;29;887;-78
2023/03/24 01:24:17;;;;;;;4.07;2.70;;;;;;;13.75;69.13;99421.47;683056;29;1086;-78
2023/03/24 01:24:37;;;;;;;4.65;3.00;;;;;;;13.69;69.01;99420.59;682855;28;1292;-78
2023/03/24 01:24:59;;;;;;;4.17;3.10;;;;;;;13.70;68.88;99417.09;685855;28;840;-78
2023/03/24 01:25:22;;;;;;;3.70;2.90;;;;;;;13.70;69.04;99406.63;685587;28;1977;-78
2023/03/24 01:25:44;;;;;;;3.05;2.50;;;;;;;13.76;68.94;99417.94;688384;28;1014;-78
2023/03/24 01:26:07;;;;;;;3.60;2.75;;;;;;;13.75;68.89;99422.31;685654;28;1034;-78
2023/03/24 01:26:27;;;;;;;3.33;2.70;;;;;;;13.69;69.05;99407.50;685656;28;981;-77
2023/03/24 01:26:48;;;;;;;3.42;2.63;;;;;;;13.71;68.85;99423.22;685468;28;1196;-78
2023/03/24 01:27:19;;;;;;;3.53;2.40;;;;;;;13.70;68.80;99401.38;685723;28;1085;-78
2023/03/24 01:27:39;;;;;;;6.00;2.90;;;;;;;13.79;68.93;99420.53;685685;28;973;-77
2023/03/24 01:28:01;;;;;;;5.22;2.88;;;;;;;13.75;69.04;99411.81;683730;28;1255;-78
2023/03/24 01:28:23;;;;;;;6.55;3.00;;;;;;;13.67;69.09;99396.16;685589;28;1216;-78
2023/03/24 01:28:44;;;;;;;4.40;2.80;;;;;;;13.71;69.25;99412.75;687732;28;1085;-78
2023/03/24 01:29:06;;;;;;;3.55;2.60;;;;;;;13.77;68.98;99411.81;685566;28;1077;-78
2023/03/24 01:29:26;;;;;;;2.90;2.60;;;;;;;13.76;68.90;99417.94;685635;28;1036;-77
2023/03/24 01:29:47;;;;;;;3.17;2.60;;;;;;;13.79;68.82;99415.28;685707;28;1154;-77
2023/03/24 01:30:14;;;;;;;3.28;2.63;;;;;;;13.71;69.10;99403.09;683720;28;1177;-78
2023/03/24 01:30:34;;;;;;;3.20;2.50;;;;;;;13.75;69.17;99410.97;682990;29;1074;-78
2023/03/24 01:30:55;;;;;;;2.83;2.40;;;;;;;13.81;69.09;99413.53;680394;29;893;-77
2023/03/24 01:31:16;;;;;;;2.55;2.35;;;;;;;13.80;69.10;99422.28;677654;29;1073;-78
2023/03/24 01:31:37;;;;;;;2.50;2.30;;;;;;;13.81;69.04;99417.03;677123;29;1180;-78
2023/03/24 01:31:57;;;;;;;2.60;2.30;;;;;;;13.85;68.95;99417.88;680459;29;737;-78
2023/03/24 01:32:18;;;;;;;2.70;2.30;;;;;;;13.82;68.92;99413.53;680417;29;1176;-78
2023/03/24 01:32:39;;;;;;;2.97;2.35;;;;;;;13.88;69.06;99425.72;680652;29;1135;-77
2023/03/24 01:32:59;;;;;;;2.92;2.40;;;;;;;13.82;68.74;99408.28;683394;28;1145;-78
2023/03/24 01:33:21;;;;;;;3.70;2.50;;;;;;;13.95;68.89;99424.78;688243;28;1123;-78
2023/03/24 01:33:42;;;;;;;3.50;2.50;;;;;;;13.93;68.75;99417.81;682871;28;1247;-77
2023/03/24 01:34:03;;;;;;;3.22;2.72;;;;;;;13.88;68.53;99409.97;680272;29;1655;-77
2023/03/24 01:34:24;;;;;;;2.97;2.67;;;;;;;13.86;68.15;99401.25;677835;29;1026;-78
2023/03/24 01:34:44;;;;;;;3.10;2.75;;;;;;;13.93;68.66;99407.31;680435;29;1174;-77
2023/03/24 01:35:06;;;;;;;2.53;2.33;;;;;;;13.87;68.59;99404.78;683032;29;1216;-77
2023/03/24 01:35:27;;;;;;;2.40;2.20;;;;;;;13.90;68.27;99417.84;688343;28;1083;-77
2023/03/24 01:35:48;;;;;;;2.50;2.30;;;;;;;13.93;68.24;99408.19;688313;28;1247;-78
2023/03/24 01:36:09;;;;;;;2.83;2.50;;;;;;;13.87;68.32;99404.78;688266;28;1135;-77
2023/03/24 01:36:30;;;;;;;3.00;2.70;;;;;;;13.85;68.27;99404.78;688382;28;1108;-77
2023/03/24 01:36:51;;;;;;;3.30;2.65;;;;;;;13.86;68.42;99411.75;682771;29;1196;-78
2023/03/24 01:37:11;;;;;;;2.90;2.57;;;;;;;13.86;68.43;99406.50;680276;29;1208;-77
2023/03/24 01:37:33;;;;;;;3.30;2.60;;;;;;;13.77;68.58;99396.09;682898;29;1149;-78
2023/03/24 01:37:53;;;;;;;3.10;2.50;;;;;;;13.83;68.51;99406.53;680423;29;1272;-78
2023/03/24 01:38:14;;;;;;;3.40;2.40;;;;;;;13.80;68.44;99411.78;685582;28;1022;-77
2023/03/24 01:38:35;;;;;;;2.72;2.30;;;;;;;13.80;68.75;99406.53;685613;28;1161;-78
2023/03/24 01:38:59;;;;;;;3.97;2.40;;;;;;;13.72;68.81;99388.25;683047;29;805;-77
2023/03/24 01:39:20;;;;;;;4.25;2.58;;;;;;;13.75;68.88;99406.59;682479;29;1179;-78
2023/03/24 01:39:41;;;;;;;5.00;2.58;;;;;;;13.76;68.90;99412.72;685620;28;1114;-78
2023/03/24 01:40:06;;;;;;;3.70;2.45;;;;;;;13.69;68.88;99399.63;682982;29;1343;-78
2023/03/24 01:40:30;;;;;;;4.00;3.00;;;;;;;13.65;69.03;99387.41;682998;29;1108;-77
2023/03/24 01:40:51;;;;;;;3.35;3.05;;;;;;;13.75;69.06;99403.97;685650;28;1179;-77
2023/03/24 01:41:12;;;;;;;3.65;2.85;;;;;;;13.76;68.90;99408.31;682914;29;1375;-77
2023/03/24 01:41:37;;;;;;;3.65;2.70;;;;;;;13.67;69.04;99392.66;685458;28;1203;-77
2023/03/24 01:41:57;;;;;;;3.40;2.60;;;;;;;13.74;68.91;99411.81;685713;28;910;-77
2023/03/24 01:42:22;;;;;;;3.00;2.80;;;;;;;13.71;69.20;99400.50;685581;28;1219;-78
2023/03/24 01:42:43;;;;;;;3.00;2.70;;;;;;;13.66;69.08;99396.16;685591;28;1062;-77
2023/03/24 01:43:08;;;;;;;3.30;2.90;;;;;;;13.65;69.06;99387.41;685685;28;1188;-78
2023/03/24 01:43:32;;;;;;;3.15;2.67;;;;;;;13.68;69.50;99394.41;685615;28;974;-78
2023/03/24 01:43:52;;;;;;;3.78;2.97;;;;;;;13.69;69.23;99404.00;685766;28;924;-77
2023/03/24 01:44:42;;;;;;;3.25;2.75;;;;;;;13.74;69.27;99411.81;685556;28;1197;-77
2023/03/24 01:45:39;;;;;;;2.83;2.63;;;;;;;13.73;69.49;99410.97;682803;28;1168;-77
2023/03/24 01:46:09;;;;;;;2.70;2.50;;;;;;;13.72;69.40;99406.63;689059;28;1083;-77
2023/03/24 01:46:32;;;;;;;2.95;2.75;;;;;;;13.73;69.32;99416.22;690871;28;2026;-77
2023/03/24 01:46:54;;;;;;;3.20;2.90;;;;;;;13.71;69.23;99416.22;686575;28;1234;-77
2023/03/24 01:47:16;;;;;;;3.80;2.75;;;;;;;13.62;69.60;99399.66;685581;28;1185;-77
2023/03/24 01:47:36;;;;;;;4.25;2.70;;;;;;;13.64;69.38;99401.41;685585;28;1096;-77
2023/03/24 01:47:57;;;;;;;4.00;2.60;;;;;;;13.63;69.39;99406.69;688255;28;1259;-78
2023/03/24 01:48:38;;;;;;;2.90;2.60;;;;;;;13.74;69.29;99410.09;688216;28;1157;-77
2023/03/24 01:49:03;;;;;;;3.47;2.70;;;;;;;13.65;69.34;99394.44;685379;28;1521;-77
2023/03/24 01:49:30;;;;;;;3.30;2.70;;;;;;;13.73;69.52;99413.59;685612;28;1310;-78
2023/03/24 01:49:55;;;;;;;3.00;2.60;;;;;;;13.66;69.38;99397.00;685673;28;1099;-77
2023/03/24 01:50:17;;;;;;;3.00;2.70;;;;;;;13.72;69.49;99406.63;685550;28;992;-78